Time;durP1;ratioP1;P1;durP2;ratioP2;P2;SDS_P1;SDS_P2;PMS_P1;PMS_P2;Temp;Humidity;BMP_temperature;BMP_pressure;BME280_temperature;BME280_humidity;BME280_pressure;Samples;Min_cycle;Max_cycle;Signal;HPM_P1;HPM_P2
2022/01/27 00:01:02;;;;;;;20.83;9.93;;;;;;;0.39;100.00;100953.00;5094898;28;20227;-76
2022/01/27 00:03:32;;;;;;;24.93;13.33;;;;;;;0.27;100.00;100952.19;5096059;28;20275;-76
2022/01/27 00:06:03;;;;;;;31.20;13.83;;;;;;;0.16;100.00;100953.09;5115613;28;20197;-76
2022/01/27 00:08:37;;;;;;;9.23;5.80;;;;;;;0.23;100.00;100941.66;5116887;28;20582;-75
2022/01/27 00:11:10;;;;;;;28.60;14.10;;;;;;;0.29;100.00;100944.59;5116307;28;20197;-76
2022/01/27 00:13:45;;;;;;;32.70;15.93;;;;;;;0.10;100.00;100936.47;5111041;28;20194;-75
2022/01/27 00:16:16;;;;;;;21.97;10.07;;;;;;;0.28;100.00;100956.50;5096248;28;20206;-76
2022/01/27 00:18:44;;;;;;;25.97;13.97;;;;;;;0.11;100.00;100953.56;5095660;28;20222;-76
2022/01/27 00:21:11;;;;;;;33.13;14.33;;;;;;;0.14;100.00;100961.41;5095433;28;20198;-76
2022/01/27 00:23:40;;;;;;;32.73;15.30;;;;;;;0.19;100.00;100948.19;5095262;28;20711;-77
2022/01/27 00:26:07;;;;;;;25.10;12.70;;;;;;;0.15;100.00;100946.22;5104496;28;20190;-75
2022/01/27 00:28:34;;;;;;;26.23;13.37;;;;;;;0.21;100.00;100951.75;5095141;28;20220;-76
2022/01/27 00:31:02;;;;;;;18.97;8.47;;;;;;;0.30;100.00;100956.59;5094673;28;20561;-75
2022/01/27 00:33:29;;;;;;;23.37;10.67;;;;;;;0.26;100.00;100954.59;5095059;28;20243;-75
2022/01/27 00:35:56;;;;;;;11.43;7.03;;;;;;;0.27;100.00;100951.28;5103570;28;20200;-76
2022/01/27 00:38:23;;;;;;;32.37;13.03;;;;;;;-0.10;100.00;100886.66;5115784;28;20225;-75
2022/01/27 00:40:50;;;;;;;38.47;16.67;;;;;;;0.03;100.00;100919.88;5115682;28;20189;-75
2022/01/27 00:43:18;;;;;;;26.77;12.80;;;;;;;0.07;100.00;100919.31;5115242;28;20242;-75
2022/01/27 00:45:44;;;;;;;21.43;10.93;;;;;;;0.11;100.00;100931.47;5087813;28;20690;-76
2022/01/27 00:48:15;;;;;;;30.20;13.57;;;;;;;0.13;100.00;100947.78;5115645;28;20197;-76
2022/01/27 00:50:42;;;;;;;32.53;14.70;;;;;;;0.18;100.00;100936.22;5115556;28;20194;-76
2022/01/27 00:53:24;;;;;;;24.73;13.27;;;;;;;0.29;100.00;100934.41;5115536;28;20204;-76
2022/01/27 00:55:51;;;;;;;25.83;12.00;;;;;;;0.30;100.00;100931.97;5106341;28;20204;-75
2022/01/27 00:58:31;;;;;;;20.73;10.23;;;;;;;0.37;100.00;100939.28;5095481;28;20202;-75
2022/01/27 01:01:02;;;;;;;26.13;12.33;;;;;;;0.41;100.00;100925.94;5101942;28;20221;-75
2022/01/27 01:03:35;;;;;;;27.37;12.20;;;;;;;0.47;100.00;100923.81;5114619;28;20197;-76
2022/01/27 01:06:21;;;;;;;28.83;14.17;;;;;;;0.49;100.00;100917.16;5105252;28;20190;-75
2022/01/27 01:09:41;;;;;;;26.67;12.13;;;;;;;0.59;100.00;100911.00;5095048;28;20198;-76
2022/01/27 01:14:45;;;;;;;29.67;13.53;;;;;;;0.28;100.00;100872.34;5083780;28;20198;-76
2022/01/27 01:17:29;;;;;;;23.00;11.27;;;;;;;0.47;100.00;100905.94;5112626;28;20724;-76
2022/01/27 01:20:25;;;;;;;22.17;10.80;;;;;;;0.59;100.00;100917.78;5114851;28;20240;-76
2022/01/27 01:31:15;;;;;;;22.70;12.23;;;;;;;0.65;100.00;100951.34;5086552;28;20201;-76
2022/01/27 01:33:44;;;;;;;24.07;9.93;;;;;;;0.60;100.00;100952.72;5093794;28;20214;-76
2022/01/27 01:36:35;;;;;;;27.53;13.00;;;;;;;0.61;100.00;100949.41;5106171;28;20194;-76
2022/01/27 01:39:02;;;;;;;23.83;11.63;;;;;;;0.64;100.00;100950.50;5101594;28;20218;-76
2022/01/27 01:41:28;;;;;;;23.67;11.60;;;;;;;0.57;100.00;100934.66;5094179;28;20202;-76
2022/01/27 01:43:55;;;;;;;20.13;9.70;;;;;;;0.60;100.00;100933.19;5093788;28;20268;-75
2022/01/27 01:46:22;;;;;;;30.17;14.07;;;;;;;0.48;100.00;100940.00;5106040;28;20190;-76
2022/01/27 01:48:49;;;;;;;23.27;12.57;;;;;;;0.47;100.00;100928.03;5114347;28;20197;-76
2022/01/27 01:51:24;;;;;;;31.60;12.63;;;;;;;0.31;100.00;100921.00;5104492;28;20202;-75
2022/01/27 01:53:50;;;;;;;33.27;14.57;;;;;;;0.38;100.00;100941.06;5093679;28;20197;-76
2022/01/27 01:56:17;;;;;;;41.40;15.23;;;;;;;0.32;100.00;100927.00;5106822;28;20197;-75
2022/01/27 01:58:44;;;;;;;40.00;18.17;;;;;;;0.25;100.00;100932.47;5113824;28;20217;-75
2022/01/27 02:01:11;;;;;;;37.27;15.57;;;;;;;0.27;100.00;100935.97;5113525;28;20579;-75
2022/01/27 02:03:38;;;;;;;11.10;6.53;;;;;;;0.31;100.00;100933.75;5114222;28;20193;-75
2022/01/27 02:06:05;;;;;;;32.07;16.73;;;;;;;0.38;100.00;100930.84;5101326;28;20623;-76
2022/01/27 02:08:45;;;;;;;33.07;15.90;;;;;;;0.24;100.00;100940.88;5093425;28;20225;-75
2022/01/27 02:19:28;;;;;;;32.47;13.33;;;;;;;0.16;100.00;100930.13;5113897;28;20232;-76
2022/01/27 02:21:58;;;;;;;33.43;14.37;;;;;;;0.16;100.00;100927.59;5104501;28;20194;-76
2022/01/27 02:24:28;;;;;;;29.90;15.87;;;;;;;0.01;100.00;100944.34;5093024;28;20259;-75
2022/01/27 02:26:55;;;;;;;33.60;16.07;;;;;;;-0.10;100.00;100942.72;5111769;28;20748;-76
2022/01/27 02:29:23;;;;;;;36.60;15.50;;;;;;;-0.32;100.00;100893.59;5113760;28;20198;-75
2022/01/27 02:31:51;;;;;;;36.10;16.80;;;;;;;0.00;100.00;100935.81;5112702;28;20580;-75
2022/01/27 02:34:18;;;;;;;30.23;15.13;;;;;;;-0.02;100.00;100936.50;5113164;28;20285;-76
2022/01/27 02:36:45;;;;;;;28.50;12.33;;;;;;;0.07;100.00;100932.06;5094586;28;20244;-75
2022/01/27 02:39:14;;;;;;;40.77;17.97;;;;;;;-0.05;100.00;100910.81;5092927;28;20217;-76
2022/01/27 02:41:46;;;;;;;37.93;15.87;;;;;;;0.04;100.00;100926.72;5093569;28;20639;-76
2022/01/27 02:44:25;;;;;;;14.70;7.40;;;;;;;0.14;100.00;100929.16;5092985;28;20213;-76
2022/01/27 02:46:52;;;;;;;31.40;14.50;;;;;;;0.13;100.00;100935.03;5110628;28;20197;-75
2022/01/27 02:49:19;;;;;;;60.07;24.23;;;;;;;-0.32;100.00;100889.34;5113072;28;20691;-76
2022/01/27 02:51:46;;;;;;;31.30;13.57;;;;;;;0.10;100.00;100942.47;5112900;28;20196;-76
2022/01/27 02:54:14;;;;;;;31.27;11.90;;;;;;;0.24;100.00;100944.31;5113113;28;20212;-76
2022/01/27 02:56:45;;;;;;;34.93;16.70;;;;;;;0.14;100.00;100939.38;5093990;28;20205;-76
2022/01/27 02:59:12;;;;;;;39.57;16.27;;;;;;;0.04;100.00;100952.22;5092238;28;20226;-75
2022/01/27 03:01:39;;;;;;;38.50;17.77;;;;;;;-0.34;100.00;100901.13;5106052;28;20279;-75
2022/01/27 03:04:06;;;;;;;33.80;16.77;;;;;;;0.02;100.00;100966.53;5112943;28;20675;-75
2022/01/27 03:06:33;;;;;;;35.03;16.80;;;;;;;-0.05;100.00;100967.78;5095549;28;20194;-75
2022/01/27 03:09:00;;;;;;;32.73;14.93;;;;;;;-0.03;100.00;100958.56;5092218;28;20194;-75
2022/01/27 03:11:38;;;;;;;36.13;16.20;;;;;;;0.07;100.00;100962.66;5092279;28;20620;-76
2022/01/27 03:14:05;;;;;;;32.03;15.37;;;;;;;0.10;100.00;100962.88;5092535;28;20194;-76
2022/01/27 03:16:32;;;;;;;34.63;16.30;;;;;;;-0.17;100.00;100935.41;5109802;28;20189;-76
2022/01/27 03:18:59;;;;;;;29.07;14.50;;;;;;;-0.11;100.00;100962.22;5112639;28;20221;-76
2022/01/27 03:21:26;;;;;;;36.97;16.00;;;;;;;-0.04;100.00;100959.31;5103680;28;20199;-75
2022/01/27 03:23:53;;;;;;;36.43;16.10;;;;;;;-0.05;100.00;100954.13;5092398;28;20194;-76
2022/01/27 03:26:20;;;;;;;38.30;17.13;;;;;;;-0.13;100.00;100953.59;5107162;28;20200;-75
2022/01/27 03:28:49;;;;;;;22.87;9.97;;;;;;;0.13;100.00;100947.78;5112365;28;20284;-76
2022/01/27 03:31:16;;;;;;;36.80;15.90;;;;;;;-0.19;100.00;100906.41;5111589;28;20687;-76
2022/01/27 03:33:43;;;;;;;44.50;16.97;;;;;;;-0.02;100.00;100954.34;5112327;28;20218;-75
2022/01/27 03:36:12;;;;;;;36.10;17.17;;;;;;;-0.07;100.00;100953.13;5096461;28;20205;-75
2022/01/27 03:38:39;;;;;;;45.80;18.67;;;;;;;0.10;100.00;100949.22;5092228;28;20221;-76
2022/01/27 03:41:08;;;;;;;96.57;31.57;;;;;;;0.03;100.00;100950.47;5091786;28;20225;-76
2022/01/27 03:43:35;;;;;;;45.23;18.03;;;;;;;-0.22;100.00;100926.56;5095954;28;20200;-75
2022/01/27 03:46:05;;;;;;;22.23;10.93;;;;;;;-0.02;100.00;100954.34;5097807;28;20197;-76
2022/01/27 03:48:32;;;;;;;15.63;8.90;;;;;;;-0.12;100.00;100944.28;5092362;28;20201;-75
2022/01/27 03:50:58;;;;;;;32.10;15.93;;;;;;;0.03;100.00;100944.47;5098278;28;20190;-76
2022/01/27 03:53:25;;;;;;;29.50;14.87;;;;;;;-0.33;100.00;100907.09;5092946;28;20202;-76
2022/01/27 03:55:52;;;;;;;34.53;15.17;;;;;;;-0.28;100.00;100934.66;5103705;28;20193;-76
2022/01/27 03:58:19;;;;;;;30.93;13.77;;;;;;;-0.14;100.00;100966.22;5095349;28;20201;-75
2022/01/27 04:00:46;;;;;;;31.90;16.53;;;;;;;-0.17;100.00;100966.88;5103182;28;20222;-75
2022/01/27 04:03:16;;;;;;;23.53;12.93;;;;;;;-0.12;100.00;100972.31;5111591;28;20201;-76
2022/01/27 04:05:50;;;;;;;33.07;15.90;;;;;;;-0.08;100.00;100971.75;5093494;28;20202;-76
2022/01/27 04:08:17;;;;;;;43.53;18.27;;;;;;;0.07;100.00;100972.84;5101613;28;20204;-79
2022/01/27 04:10:44;;;;;;;31.20;15.57;;;;;;;-0.12;100.00;100952.81;5111913;28;20197;-76
2022/01/27 04:13:11;;;;;;;34.07;15.43;;;;;;;-0.05;100.00;100982.16;5099229;28;20668;-76
2022/01/27 04:15:39;;;;;;;33.03;14.13;;;;;;;-0.14;100.00;100966.22;5091061;28;20193;-76
2022/01/27 04:18:06;;;;;;;32.07;15.37;;;;;;;-0.07;100.00;100978.59;5091906;28;20191;-76
2022/01/27 04:20:35;;;;;;;27.27;13.20;;;;;;;0.02;100.00;100978.38;5091128;28;20232;-76
2022/01/27 04:23:01;;;;;;;28.90;14.20;;;;;;;-0.05;100.00;100969.44;5096590;28;20194;-76
2022/01/27 04:25:28;;;;;;;26.87;13.53;;;;;;;-0.11;100.00;100940.97;5090778;28;20190;-76
2022/01/27 04:27:59;;;;;;;26.00;11.17;;;;;;;0.16;100.00;100978.59;5093371;28;20272;-77
2022/01/27 04:30:27;;;;;;;18.77;10.53;;;;;;;0.11;100.00;100985.00;5085143;28;20191;-76
2022/01/27 04:32:57;;;;;;;25.43;12.30;;;;;;;0.13;100.00;100987.69;5090164;28;20282;-76
2022/01/27 04:35:26;;;;;;;22.07;11.37;;;;;;;0.17;100.00;100980.38;5090903;28;20222;-76
2022/01/27 04:38:11;;;;;;;26.63;13.13;;;;;;;0.26;100.00;100981.00;5092146;28;20190;-76
2022/01/27 04:40:44;;;;;;;31.93;15.90;;;;;;;0.26;100.00;100975.91;5094136;28;20722;-76
2022/01/27 04:43:20;;;;;;;22.23;11.97;;;;;;;0.19;100.00;100986.44;5098152;28;20584;-77
2022/01/27 04:45:55;;;;;;;25.50;11.77;;;;;;;-0.17;100.00;100907.38;5089890;28;20199;-76
2022/01/27 04:48:23;;;;;;;25.20;13.27;;;;;;;0.31;100.00;100973.66;5094626;28;20259;-76
2022/01/27 04:50:52;;;;;;;24.20;12.17;;;;;;;0.30;100.00;100969.34;5104970;28;20204;-76
2022/01/27 04:53:25;;;;;;;27.50;11.33;;;;;;;0.38;100.00;100974.22;5096465;28;20205;-76
2022/01/27 04:55:54;;;;;;;12.40;9.17;;;;;;;0.44;100.00;100976.28;5091381;28;20198;-76
2022/01/27 04:58:29;;;;;;;16.40;8.47;;;;;;;0.46;100.00;100969.63;5092811;28;20182;-76
2022/01/27 05:00:58;;;;;;;28.57;12.90;;;;;;;0.50;100.00;100977.59;5091608;28;20225;-76
2022/01/27 05:03:34;;;;;;;23.67;11.00;;;;;;;0.53;100.00;100981.16;5091499;28;20190;-76
2022/01/27 05:06:01;;;;;;;24.90;12.50;;;;;;;0.61;100.00;100968.13;5094498;28;20217;-76
2022/01/27 05:08:30;;;;;;;33.57;17.47;;;;;;;0.53;100.00;100976.94;5096615;28;20671;-76
2022/01/27 05:11:00;;;;;;;34.10;15.47;;;;;;;0.61;100.00;100959.59;5107661;28;20672;-76
2022/01/27 05:13:30;;;;;;;23.67;13.27;;;;;;;0.46;100.00;100957.75;5105582;28;20194;-75
2022/01/27 05:15:57;;;;;;;32.63;15.67;;;;;;;0.68;100.00;100979.66;5108392;28;20683;-74
2022/01/27 05:18:24;;;;;;;20.53;10.53;;;;;;;0.73;100.00;100983.38;5108251;28;20189;-75
2022/01/27 05:20:51;;;;;;;38.67;13.93;;;;;;;0.75;100.00;100974.19;5107890;28;20217;-75
2022/01/27 05:23:17;;;;;;;20.33;10.93;;;;;;;0.76;100.00;100966.63;5101723;28;20201;-74
2022/01/27 05:25:45;;;;;;;31.57;13.90;;;;;;;0.84;100.00;100972.25;5111744;28;20185;-76
2022/01/27 05:28:12;;;;;;;46.17;16.67;;;;;;;0.89;100.00;100965.78;5095571;28;20198;-78
2022/01/27 05:30:39;;;;;;;64.37;22.43;;;;;;;0.89;100.00;100963.25;5102282;28;20194;-75
2022/01/27 05:33:09;;;;;;;20.77;9.63;;;;;;;0.89;100.00;100955.59;5098021;28;20222;-75
2022/01/27 05:35:37;;;;;;;30.63;12.73;;;;;;;0.90;100.00;100959.88;5092296;28;20676;-75
2022/01/27 05:38:04;;;;;;;23.37;10.40;;;;;;;0.70;100.00;100932.16;5100137;28;20244;-74
2022/01/27 05:40:30;;;;;;;35.33;13.80;;;;;;;1.18;100.00;100977.94;5095887;28;20218;-73
2022/01/27 05:42:59;;;;;;;35.72;16.92;;;;;;;1.04;100.00;100973.56;5102328;28;20442;-73
2022/01/27 05:45:26;;;;;;;34.27;14.60;;;;;;;1.14;100.00;100999.81;5081335;28;20604;-71
2022/01/27 05:47:53;;;;;;;41.72;19.70;;;;;;;1.37;100.00;100992.00;5092625;28;20497;-71
2022/01/27 05:50:19;;;;;;;32.60;15.53;;;;;;;1.71;100.00;101030.00;5093767;28;20198;-72
2022/01/27 05:52:46;;;;;;;31.17;16.27;;;;;;;1.79;100.00;101027.13;5105497;28;20204;-72
2022/01/27 05:55:13;;;;;;;14.43;7.73;;;;;;;1.53;100.00;101021.13;5098838;28;20630;-72
2022/01/27 05:57:40;;;;;;;11.03;6.63;;;;;;;1.30;100.00;101000.06;5095388;28;20609;-73
2022/01/27 06:00:10;;;;;;;35.63;14.27;;;;;;;1.24;100.00;101004.78;5096477;28;20246;-73
2022/01/27 06:02:37;;;;;;;45.60;21.57;;;;;;;1.19;100.00;100995.00;5092039;28;20743;-74
2022/01/27 06:05:04;;;;;;;29.70;13.17;;;;;;;1.23;100.00;101008.09;5092737;28;20579;-73
2022/01/27 06:07:31;;;;;;;26.13;13.93;;;;;;;1.18;100.00;101026.47;5092365;28;20628;-74
2022/01/27 06:09:58;;;;;;;26.90;11.40;;;;;;;1.23;100.00;101015.75;5093413;28;20198;-73
2022/01/27 06:12:25;;;;;;;29.27;13.67;;;;;;;1.12;100.00;100992.84;5098263;28;20659;-73
2022/01/27 06:14:52;;;;;;;40.23;16.10;;;;;;;1.31;100.00;101019.72;5100471;28;20198;-73
2022/01/27 06:17:20;;;;;;;9.37;7.17;;;;;;;1.41;100.00;101023.75;5096273;28;20209;-73
2022/01/27 06:19:48;;;;;;;21.67;10.87;;;;;;;1.36;100.00;101002.13;5092799;28;20202;-73
2022/01/27 06:22:16;;;;;;;20.03;10.97;;;;;;;1.29;100.00;101017.81;5103731;28;20588;-74
2022/01/27 06:24:44;;;;;;;20.03;11.60;;;;;;;1.28;100.00;101011.88;5111619;28;20194;-72
2022/01/27 06:27:12;;;;;;;34.23;10.90;;;;;;;1.37;100.00;101002.22;5111542;28;20598;-74
2022/01/27 06:29:39;;;;;;;17.53;9.13;;;;;;;1.34;100.00;101012.25;5111454;28;20194;-73
2022/01/27 06:32:06;;;;;;;28.90;11.97;;;;;;;1.43;100.00;101017.97;5108824;28;20189;-72
2022/01/27 06:34:34;;;;;;;31.53;13.23;;;;;;;1.42;100.00;101006.00;5110923;28;20278;-74
2022/01/27 06:37:01;;;;;;;27.97;14.53;;;;;;;1.44;100.00;100993.28;5111472;28;20197;-73
2022/01/27 06:39:28;;;;;;;20.67;12.07;;;;;;;1.33;100.00;100974.72;5112683;28;20204;-73
2022/01/27 06:41:55;;;;;;;21.73;13.23;;;;;;;1.45;100.00;100985.75;5106411;28;20218;-73
2022/01/27 06:44:21;;;;;;;20.20;9.20;;;;;;;1.48;100.00;100975.72;5092575;28;20613;-74
2022/01/27 06:46:48;;;;;;;23.40;10.97;;;;;;;1.52;100.00;100960.59;5108941;28;20582;-74
2022/01/27 06:49:16;;;;;;;20.27;11.27;;;;;;;1.25;100.00;100918.81;5094262;28;20190;-73
2022/01/27 06:51:45;;;;;;;15.63;9.67;;;;;;;1.55;100.00;100961.66;5092283;28;20702;-74
2022/01/27 06:54:12;;;;;;;30.73;15.20;;;;;;;1.62;100.00;100974.06;5092427;28;20565;-75
2022/01/27 06:56:39;;;;;;;20.27;11.10;;;;;;;1.69;100.00;100977.88;5092253;28;20660;-73
2022/01/27 06:59:06;;;;;;;30.10;14.30;;;;;;;1.60;100.00;100954.31;5091936;28;20233;-74
2022/01/27 07:01:33;;;;;;;28.13;15.20;;;;;;;1.75;100.00;100986.81;5091532;28;20236;-73
2022/01/27 07:16:38;;;;;;;22.10;11.07;;;;;;;1.79;100.00;100988.78;5069307;28;20544;-73
2022/01/27 07:19:04;;;;;;;22.13;13.73;;;;;;;1.87;100.00;101000.41;5069227;28;20194;-73
2022/01/27 07:21:31;;;;;;;20.90;12.13;;;;;;;1.80;100.00;100995.69;5069072;28;20205;-73
2022/01/27 07:23:58;;;;;;;26.77;12.67;;;;;;;1.75;100.00;100991.09;5069064;28;20195;-75
2022/01/27 07:26:26;;;;;;;37.50;16.97;;;;;;;1.66;100.00;100998.13;5068953;28;20688;-74
2022/01/27 07:28:53;;;;;;;31.30;13.87;;;;;;;1.64;100.00;101003.13;5068592;28;20195;-73
2022/01/27 07:31:20;;;;;;;23.50;12.27;;;;;;;1.67;100.00;101002.47;5068612;28;20198;-73
2022/01/27 07:33:48;;;;;;;21.60;10.53;;;;;;;1.56;100.00;100977.88;5068881;28;20195;-73
2022/01/27 07:36:16;;;;;;;24.33;12.70;;;;;;;1.92;100.00;100995.59;5067889;28;20210;-73
2022/01/27 07:38:43;;;;;;;20.23;10.87;;;;;;;1.73;100.00;100992.63;5068645;28;20219;-73
2022/01/27 07:41:10;;;;;;;26.13;10.87;;;;;;;1.79;100.00;100981.13;5068737;28;20202;-73
2022/01/27 07:43:37;;;;;;;27.03;13.07;;;;;;;1.87;100.00;101000.41;5068639;28;20191;-73
2022/01/27 07:46:04;;;;;;;12.50;7.57;;;;;;;1.74;100.00;100971.41;5068594;28;20223;-73
2022/01/27 07:48:31;;;;;;;19.07;10.10;;;;;;;1.88;100.00;100979.16;5068153;28;20205;-77
2022/01/27 07:51:01;;;;;;;19.90;10.60;;;;;;;1.93;100.00;100994.78;5068566;28;20264;-75
2022/01/27 07:53:28;;;;;;;17.73;11.27;;;;;;;1.99;100.00;101008.88;5068346;28;20199;-74
2022/01/27 07:55:56;;;;;;;16.67;9.70;;;;;;;2.04;100.00;101016.81;5067678;28;20210;-73
2022/01/27 07:58:22;;;;;;;12.43;8.80;;;;;;;2.10;100.00;101012.09;5067013;28;20289;-74
2022/01/27 08:00:49;;;;;;;17.47;9.43;;;;;;;2.17;100.00;101018.50;5068033;28;20214;-74
2022/01/27 08:03:16;;;;;;;19.47;9.60;;;;;;;2.17;100.00;101024.50;5067863;28;20198;-73
2022/01/27 08:05:43;;;;;;;19.97;12.53;;;;;;;2.27;100.00;101031.97;5066961;28;20247;-74
2022/01/27 08:08:11;;;;;;;18.40;12.47;;;;;;;2.03;100.00;101025.28;5067862;28;20665;-74
2022/01/27 08:10:38;;;;;;;17.53;11.70;;;;;;;2.08;100.00;101023.00;5067967;28;20662;-74
2022/01/27 08:13:05;;;;;;;16.43;8.77;;;;;;;2.27;100.00;101037.06;5067828;28;20234;-74
2022/01/27 08:15:32;;;;;;;20.67;10.40;;;;;;;2.30;100.00;101042.38;5065309;28;20622;-75
2022/01/27 08:17:59;;;;;;;16.73;10.33;;;;;;;2.17;100.00;101003.13;5054377;28;20207;-74
2022/01/27 08:20:26;;;;;;;26.07;15.23;;;;;;;2.25;100.00;101038.63;5054376;28;20666;-75
2022/01/27 08:22:54;;;;;;;35.20;14.33;;;;;;;2.25;100.00;101043.75;5054629;28;20203;-74
2022/01/27 08:25:24;;;;;;;15.70;9.73;;;;;;;2.07;100.00;101022.13;5054156;28;20232;-73
2022/01/27 08:27:55;;;;;;;21.17;12.97;;;;;;;2.07;100.00;101045.13;5054616;28;20202;-73
2022/01/27 08:30:25;;;;;;;20.47;10.70;;;;;;;2.07;100.00;101009.31;5054602;28;20586;-74
2022/01/27 08:32:58;;;;;;;43.97;19.27;;;;;;;2.12;100.00;101025.88;5054242;28;20670;-73
2022/01/27 08:35:26;;;;;;;31.47;15.40;;;;;;;2.24;100.00;101036.88;5053463;28;20693;-74
2022/01/27 08:37:53;;;;;;;66.93;21.63;;;;;;;2.24;100.00;101008.75;5054064;28;20200;-73
2022/01/27 08:40:21;;;;;;;32.73;13.77;;;;;;;2.55;100.00;101031.09;5054097;28;20261;-73
2022/01/27 08:42:49;;;;;;;35.57;15.37;;;;;;;2.56;100.00;101032.88;5054766;28;20196;-74
2022/01/27 08:45:19;;;;;;;53.23;19.63;;;;;;;2.53;100.00;101028.47;5053867;28;20235;-74
2022/01/27 08:47:46;;;;;;;31.13;13.13;;;;;;;2.54;100.00;101021.66;5038253;28;20320;-73
2022/01/27 08:50:14;;;;;;;33.30;14.13;;;;;;;2.42;100.00;101002.22;5034780;28;20196;-73
2022/01/27 08:52:43;;;;;;;48.07;20.03;;;;;;;2.56;100.00;101012.41;5033672;28;20742;-74
2022/01/27 08:55:11;;;;;;;21.20;9.13;;;;;;;2.77;100.00;101036.75;5034075;28;20589;-73
2022/01/27 08:57:38;;;;;;;39.93;17.67;;;;;;;2.77;100.00;101029.97;5033637;28;20189;-74
2022/01/27 09:00:09;;;;;;;28.47;14.63;;;;;;;2.78;100.00;101033.41;5034484;28;20200;-74
2022/01/27 09:02:36;;;;;;;28.73;16.50;;;;;;;2.89;100.00;101025.56;5033605;28;20211;-73
2022/01/27 09:05:03;;;;;;;26.93;14.60;;;;;;;2.90;100.00;101013.66;5033655;28;20239;-73
2022/01/27 09:07:30;;;;;;;34.93;14.23;;;;;;;2.85;100.00;101002.25;5033127;28;20223;-74
2022/01/27 09:09:56;;;;;;;25.03;12.27;;;;;;;2.97;100.00;101016.66;5033765;28;20250;-73
2022/01/27 09:12:23;;;;;;;21.83;11.67;;;;;;;3.17;100.00;101014.41;5033473;28;20196;-73
2022/01/27 09:14:50;;;;;;;21.67;11.17;;;;;;;3.42;100.00;101021.06;5033505;28;20255;-74
2022/01/27 09:17:19;;;;;;;20.00;8.77;;;;;;;3.27;100.00;101007.38;5032359;28;20188;-74
2022/01/27 09:19:46;;;;;;;15.70;8.20;;;;;;;3.44;100.00;101029.72;5032380;28;20662;-74
2022/01/27 09:22:16;;;;;;;17.07;9.00;;;;;;;3.55;100.00;101020.09;5033390;28;20244;-74
2022/01/27 09:24:52;;;;;;;18.57;11.37;;;;;;;3.70;100.00;101030.34;5033173;28;20589;-74
2022/01/27 09:27:20;;;;;;;21.87;9.73;;;;;;;3.74;100.00;101034.88;5033058;28;20223;-73
2022/01/27 09:29:48;;;;;;;12.60;8.83;;;;;;;3.63;100.00;100994.91;5033094;28;20211;-74
2022/01/27 09:32:16;;;;;;;15.70;8.93;;;;;;;3.91;100.00;101042.72;5033183;28;20246;-74
2022/01/27 09:34:44;;;;;;;17.40;11.90;;;;;;;4.04;100.00;101039.16;5032927;28;20271;-74
2022/01/27 09:37:12;;;;;;;11.97;7.60;;;;;;;3.95;100.00;101013.00;5032751;28;20232;-74
2022/01/27 09:39:39;;;;;;;16.07;8.57;;;;;;;4.12;100.00;101027.63;5033232;28;20551;-73
2022/01/27 09:42:08;;;;;;;29.07;14.10;;;;;;;4.27;100.00;101038.75;5033307;28;20211;-73
2022/01/27 09:44:36;;;;;;;17.00;11.83;;;;;;;3.97;100.00;100975.47;5032796;28;20205;-74
2022/01/27 09:47:06;;;;;;;23.67;12.77;;;;;;;4.43;100.00;101028.50;5033127;28;20199;-74
2022/01/27 09:49:37;;;;;;;15.33;8.57;;;;;;;4.47;100.00;101022.75;5033130;28;20196;-74
2022/01/27 09:52:06;;;;;;;23.10;12.90;;;;;;;4.49;100.00;101000.59;5033055;28;20262;-74
2022/01/27 09:54:33;;;;;;;28.40;14.30;;;;;;;4.68;100.00;101006.72;5032932;28;20192;-75
2022/01/27 09:57:00;;;;;;;14.80;9.63;;;;;;;4.71;100.00;101012.91;5032555;28;20204;-74
2022/01/27 09:59:27;;;;;;;16.03;8.40;;;;;;;4.61;100.00;101017.47;5032836;28;20192;-74
2022/01/27 10:02:00;;;;;;;25.77;12.43;;;;;;;4.77;100.00;101020.06;5032833;28;20196;-74
2022/01/27 10:04:44;;;;;;;21.13;10.77;;;;;;;4.83;100.00;101003.28;5032468;28;20249;-74
2022/01/27 10:07:14;;;;;;;10.80;8.23;;;;;;;4.98;100.00;101019.50;5031899;28;20216;-74
2022/01/27 10:09:55;;;;;;;17.40;8.83;;;;;;;4.95;100.00;101005.63;5032551;28;20586;-74
2022/01/27 10:12:26;;;;;;;23.27;13.57;;;;;;;4.91;100.00;101004.56;5032338;28;20219;-74
2022/01/27 10:14:59;;;;;;;18.30;10.77;;;;;;;4.99;100.00;101000.69;5032410;28;20228;-74
2022/01/27 10:17:26;;;;;;;14.90;8.23;;;;;;;5.08;100.00;101001.97;5032277;28;20292;-74
2022/01/27 10:19:54;;;;;;;9.80;7.87;;;;;;;5.04;100.00;101000.94;5032529;28;20218;-74
2022/01/27 10:22:23;;;;;;;15.97;6.57;;;;;;;5.07;100.00;100992.50;5032299;28;20594;-74
2022/01/27 10:25:00;;;;;;;12.17;8.37;;;;;;;5.20;100.00;101000.94;5032263;28;20188;-73
2022/01/27 10:27:32;;;;;;;10.47;6.70;;;;;;;5.29;100.00;101000.50;5032110;28;20203;-74
2022/01/27 10:32:46;;;;;;;12.03;7.40;;;;;;;5.31;100.00;100984.38;5021347;28;20203;-72
2022/01/27 10:35:15;;;;;;;15.53;8.47;;;;;;;5.23;100.00;100975.38;5031742;28;20200;-72
2022/01/27 10:37:58;;;;;;;16.50;8.73;;;;;;;5.15;100.00;100935.53;5032130;28;20205;-73
2022/01/27 10:40:28;;;;;;;13.27;8.30;;;;;;;5.51;100.00;100980.19;5031941;28;20257;-73
2022/01/27 10:43:10;;;;;;;9.53;6.20;;;;;;;5.38;100.00;100960.72;5031810;28;20192;-75
2022/01/27 10:45:39;;;;;;;9.30;6.57;;;;;;;5.64;100.00;100973.94;5031568;28;20234;-74
2022/01/27 10:48:15;;;;;;;12.93;7.47;;;;;;;5.72;99.77;100968.38;5031806;28;20673;-74
2022/01/27 10:50:49;;;;;;;17.93;8.53;;;;;;;5.30;97.24;100913.16;5032037;28;20633;-73
2022/01/27 10:53:19;;;;;;;14.33;8.23;;;;;;;5.68;97.36;100942.41;5032106;28;20273;-74
2022/01/27 10:55:47;;;;;;;10.47;6.23;;;;;;;5.88;94.61;100965.78;5031573;28;20258;-73
2022/01/27 10:58:27;;;;;;;15.80;9.27;;;;;;;5.97;94.53;100965.31;5031802;28;20192;-74
2022/01/27 11:00:57;;;;;;;11.77;6.73;;;;;;;6.09;93.51;100945.31;5031841;28;20191;-76
2022/01/27 11:03:24;;;;;;;13.07;7.93;;;;;;;6.13;92.13;100942.06;5032021;28;20196;-74
2022/01/27 11:05:51;;;;;;;20.47;7.20;;;;;;;6.33;90.77;100956.75;5030719;28;20236;-76
2022/01/27 11:08:23;;;;;;;13.47;8.50;;;;;;;6.45;88.50;100949.59;5031520;28;20662;-73
2022/01/27 11:10:51;;;;;;;19.57;9.00;;;;;;;6.50;88.47;100947.19;5031797;28;20204;-75
2022/01/27 11:13:19;;;;;;;5.10;4.50;;;;;;;6.29;87.25;100923.94;5031834;28;20196;-75
2022/01/27 11:15:46;;;;;;;10.07;5.03;;;;;;;6.41;86.64;100933.91;5031247;28;20799;-75
2022/01/27 11:18:15;;;;;;;14.97;8.50;;;;;;;6.46;85.71;100943.59;5031807;28;20192;-74
2022/01/27 11:20:53;;;;;;;31.67;13.50;;;;;;;6.53;85.65;100938.75;5031692;28;20191;-75
2022/01/27 11:23:46;;;;;;;6.90;5.77;;;;;;;6.26;85.27;100939.25;5031193;28;20208;-75
2022/01/27 11:26:19;;;;;;;12.67;8.47;;;;;;;6.36;85.87;100936.28;5031289;28;20318;-75
2022/01/27 11:28:48;;;;;;;9.60;6.53;;;;;;;6.28;86.17;100917.00;5031574;28;20582;-74
2022/01/27 11:31:26;;;;;;;10.53;7.00;;;;;;;6.27;90.67;100930.72;5031820;28;20204;-79
2022/01/27 11:34:01;;;;;;;10.33;6.97;;;;;;;6.23;86.49;100926.22;5031169;28;20207;-74
2022/01/27 11:36:29;;;;;;;15.13;9.73;;;;;;;6.03;87.50;100888.38;5030957;28;20656;-75
2022/01/27 11:38:58;;;;;;;10.47;6.97;;;;;;;6.18;84.29;100919.97;5030138;28;20287;-74
2022/01/27 11:41:43;;;;;;;12.93;6.33;;;;;;;6.19;83.82;100911.44;5030911;28;20228;-74
2022/01/27 11:44:28;;;;;;;14.13;8.13;;;;;;;6.31;83.40;100916.28;5031635;28;20192;-74
2022/01/27 11:47:20;;;;;;;18.13;8.37;;;;;;;6.46;81.36;100910.09;5030166;28;20235;-76
2022/01/27 11:49:57;;;;;;;15.00;9.27;;;;;;;6.58;80.79;100903.75;5031488;28;20228;-75
2022/01/27 11:52:28;;;;;;;15.23;8.50;;;;;;;6.67;79.54;100906.72;5034317;28;20207;-74
2022/01/27 11:54:58;;;;;;;21.37;11.97;;;;;;;6.58;77.45;100896.88;5035099;28;20552;-74
2022/01/27 11:57:46;;;;;;;13.47;7.60;;;;;;;6.53;75.72;100874.34;5035232;28;20192;-74